createdAt,value
2023-04-28T17:40:48.887Z,44.40
2023-04-28T17:43:17.533Z,57.60
2023-04-28T17:45:49.649Z,17.80
2023-04-28T17:48:18.493Z,44.60
2023-04-28T17:50:51.438Z,147.60
2023-04-28T17:53:19.641Z,122.80
2023-04-28T17:55:51.595Z,90.70
2023-04-28T17:58:20.304Z,97.60
2023-04-28T18:00:49.217Z,43.20
2023-04-28T18:03:17.363Z,31.10
2023-04-28T18:06:06.420Z,15.50
2023-04-28T18:08:35.450Z,12.20
2023-04-28T18:11:11.303Z,13.80
2023-04-28T18:13:39.292Z,19.30
2023-04-28T18:16:14.176Z,10.30
2023-04-28T18:18:44.853Z,9.70
2023-04-28T18:21:15.176Z,16.30
2023-04-28T18:23:43.188Z,15.40
2023-04-28T18:26:13.132Z,12.00
2023-04-28T18:28:41.269Z,12.30
2023-04-28T18:31:11.349Z,10.20
2023-04-28T18:33:39.428Z,11.90
2023-04-28T18:36:09.242Z,14.40
2023-04-28T18:38:37.341Z,14.40
2023-04-28T18:41:14.339Z,9.60
2023-04-28T18:43:43.059Z,7.50
2023-04-28T18:46:11.655Z,5.90
2023-04-28T18:48:40.416Z,11.50
2023-04-28T18:51:08.613Z,8.90
2023-04-28T18:53:37.096Z,7.90
2023-04-28T18:56:06.759Z,12.70
2023-04-28T18:58:37.363Z,9.40
2023-04-28T19:01:09.276Z,8.50
2023-04-28T19:03:37.954Z,11.30
2023-04-28T19:06:12.273Z,10.60
2023-04-28T19:08:40.543Z,9.50
2023-04-28T19:11:28.819Z,8.10
2023-04-28T19:13:57.743Z,6.10
2023-04-28T19:16:33.519Z,5.40
2023-04-28T19:19:01.871Z,9.20
2023-04-28T19:21:46.109Z,4.70
2023-04-28T19:24:14.377Z,4.00
2023-04-28T19:27:01.392Z,11.10
2023-04-28T19:29:29.408Z,6.50
2023-04-28T19:32:17.938Z,7.40
2023-04-28T19:34:45.992Z,6.90
2023-04-28T19:37:15.917Z,7.20
2023-04-28T19:39:44.721Z,6.70
2023-04-28T19:42:33.366Z,7.80
2023-04-28T19:45:01.440Z,8.00
2023-04-28T19:47:38.131Z,4.30
2023-04-28T19:50:07.067Z,9.30
2023-04-28T19:52:35.311Z,6.70
2023-04-28T19:55:04.220Z,7.20
2023-04-28T19:57:32.251Z,6.50
2023-04-28T20:00:00.940Z,8.90
2023-04-28T20:02:48.890Z,8.20
2023-04-28T20:05:17.018Z,6.50
2023-04-28T20:08:01.247Z,6.70
2023-04-28T20:10:29.412Z,8.40
2023-04-28T20:13:01.879Z,5.60
2023-04-28T20:15:29.830Z,6.10
2023-04-28T20:18:00.395Z,5.40
2023-04-28T20:20:28.974Z,6.60
2023-04-28T20:23:17.016Z,7.90
2023-04-28T20:25:47.186Z,7.90
2023-04-28T20:28:35.328Z,9.10
2023-04-28T20:31:03.376Z,7.80
2023-04-28T20:33:35.427Z,5.80
2023-04-28T20:36:04.129Z,5.60
2023-04-28T20:38:37.599Z,11.80
2023-04-28T20:41:07.890Z,7.60
2023-04-28T20:43:55.945Z,7.20
2023-04-28T20:46:23.968Z,8.60
2023-04-28T20:48:52.185Z,7.00
2023-04-28T20:51:20.196Z,7.50
2023-04-28T20:54:08.203Z,9.60
2023-04-28T20:56:36.216Z,12.20
2023-04-28T20:59:12.138Z,8.90
2023-04-28T21:01:41.240Z,7.00
2023-04-28T21:04:25.876Z,10.00
2023-04-28T21:06:53.859Z,5.30
2023-04-28T21:09:42.383Z,8.50
2023-04-28T21:12:18.115Z,7.40
2023-04-28T21:14:46.116Z,7.50
2023-04-28T21:17:15.326Z,7.00
2023-04-28T21:20:36.628Z,6.50
2023-04-28T21:23:21.100Z,5.40
2023-04-28T21:25:49.081Z,7.20
2023-04-28T21:28:21.441Z,6.10
2023-04-28T21:30:51.779Z,4.90
2023-04-28T21:33:22.704Z,11.00
2023-04-28T21:35:50.762Z,7.40
2023-04-28T21:38:18.882Z,6.40
2023-04-28T21:40:47.151Z,4.90
2023-04-28T21:43:20.139Z,6.10
2023-04-28T21:45:48.138Z,7.70
2023-04-28T21:48:18.687Z,6.70
2023-04-28T21:50:47.631Z,6.70
2023-04-28T21:53:18.601Z,7.40
2023-04-28T21:55:47.660Z,6.30
2023-04-28T21:58:17.808Z,7.20
2023-04-28T22:00:48.807Z,7.10
2023-04-28T22:03:20.813Z,8.40
2023-04-28T22:05:48.945Z,6.80
2023-04-28T22:08:19.005Z,7.70
2023-04-28T22:10:47.071Z,5.60
2023-04-28T22:13:20.566Z,7.70
2023-04-28T22:15:48.658Z,6.30
2023-04-28T22:18:27.565Z,9.70
2023-04-28T22:20:55.595Z,8.60
2023-04-28T22:23:25.760Z,6.70
2023-04-28T22:25:53.856Z,8.50
2023-04-28T22:28:30.358Z,6.40
2023-04-28T22:30:58.341Z,7.50
2023-04-28T22:33:30.339Z,10.40
2023-04-28T22:35:58.630Z,8.00
2023-04-28T22:38:30.467Z,4.60
2023-04-28T22:40:58.494Z,5.30
2023-04-28T22:43:54.005Z,7.20
2023-04-28T22:46:22.283Z,6.00
2023-04-28T22:49:06.137Z,7.20
2023-04-28T22:51:35.802Z,5.70
2023-04-28T22:54:23.728Z,5.60
2023-04-28T22:56:53.376Z,5.40
2023-04-28T22:59:23.923Z,5.10
2023-04-28T23:01:52.363Z,7.30
2023-04-28T23:04:36.312Z,7.00
2023-04-28T23:07:04.464Z,5.20
2023-04-28T23:09:52.579Z,5.50
2023-04-28T23:12:21.446Z,7.10
2023-04-28T23:14:53.196Z,8.10
2023-04-28T23:17:21.645Z,7.80
2023-04-28T23:20:05.848Z,6.50
2023-04-28T23:22:33.852Z,6.20
2023-04-28T23:25:06.352Z,5.70
2023-04-28T23:27:34.370Z,4.80
2023-04-28T23:30:04.286Z,6.50
2023-04-28T23:32:32.329Z,6.30
2023-04-28T23:35:03.196Z,7.00
2023-04-28T23:37:31.160Z,6.50
2023-04-28T23:40:19.114Z,8.20
2023-04-28T23:42:47.068Z,6.50
2023-04-28T23:45:19.740Z,6.40
2023-04-28T23:47:48.041Z,5.00
2023-04-28T23:50:18.967Z,4.60
2023-04-28T23:52:47.378Z,6.30
2023-04-28T23:55:19.143Z,6.70
2023-04-28T23:57:47.125Z,7.40
